Flight Track Log - Related Links

Times and Time Zones

All times are in EDT time to prevent confusion due to time zone crossing. See the LXJ524 flight status page for this flight to view local times or setup timezone preferences in your user account.

Time Position Orientation Groundspeed Altitude Reporting Facility
EDT Latitude Longitude Course Direction KTS MPH feet Rate Location/Type
Thu 02:30:22 PM 32.9833 -96.7667 258° West 226 260 4,900  Level Dallas / Fort Worth TRACON
Thu 02:31:06 PM 33.0161 -96.7481 25° Northeast 234 269 7,300 2,717 Climbing Fort Worth Center
Thu 02:32:08 PM 33.0894 -96.7617 351° North 286 329 9,700 1,887 Climbing Fort Worth Center
Thu 02:33:10 PM 33.0811 -96.8586 264° West 310 357 11,200 1,680 Climbing Fort Worth Center
Thu 02:34:13 PM 33.0481 -96.9633 249° West 332 382 13,200 2,448 Climbing Fort Worth Center
Thu 02:35:00 PM 32.7583 -97.5296 258° West  Level FlightAware Approximate
Thu 02:35:15 PM 33.0122 -97.0806 250° West 346 398 16,300  Level Fort Worth Center
Thu 02:36:17 PM 32.9761 -97.1981 250° West 379 436 17,800 1,694 Climbing Fort Worth Center
Thu 02:37:19 PM 32.9331 -97.3347 249° West 408 470 19,800 2,032 Climbing Fort Worth Center
Thu 02:38:21 PM 32.8944 -97.4622 250° West 409 471 22,000 2,129 Climbing Fort Worth Center
Thu 02:39:23 PM 32.8553 -97.5881 250° West 406 467 24,200 2,129 Climbing Fort Worth Center
Thu 02:40:25 PM 32.8147 -97.7150 249° West 412 474 26,400 2,129 Climbing Fort Worth Center
Thu 02:41:27 PM 32.7742 -97.8419 249° West 412 474 28,600 2,129 Climbing Fort Worth Center
Thu 02:42:29 PM 32.7356 -97.9689 250° West 412 474 30,800 2,304 Climbing Fort Worth Center
Thu 02:43:32 PM 32.7136 -98.1264 261° West 404 465 33,400 2,304 Climbing Fort Worth Center
Thu 02:44:34 PM 32.6944 -98.2553 260° West 403 464 35,600 1,258 Climbing Fort Worth Center
Thu 02:45:36 PM 32.6778 -98.3872 262° West 405 466 36,000 194 Climbing Fort Worth Center
Thu 02:46:38 PM 32.6686 -98.5419 266° West 435 501 36,000 484 Level Fort Worth Center
Thu 02:47:40 PM 32.6597 -98.6869 266° West 441 507 37,000 1,161 Climbing Fort Worth Center
Thu 02:48:42 PM 32.6503 -98.8261 265° West 425 489 38,400 1,113 Climbing Fort Worth Center
Thu 02:49:44 PM 32.6411 -98.9667 266° West 426 490 39,300 871 Climbing Fort Worth Center
Thu 02:50:46 PM 32.6314 -99.1083 265° West 428 493 40,200 871 Climbing Fort Worth Center
Thu 02:51:48 PM 32.6225 -99.2497 266° West 429 494 41,100 968 Climbing Fort Worth Center
Thu 02:52:50 PM 32.6103 -99.4167 265° West 428 493 42,200 912 Climbing Fort Worth Center
Thu 02:53:53 PM 32.6006 -99.5536 265° West 420 483 43,000 384 Climbing Fort Worth Center
Thu 02:54:55 PM 32.5903 -99.6928 265° West 420 483 43,000  Level Fort Worth Center
Thu 02:55:57 PM 32.5817 -99.8292 266° West 421 484 43,000  Level Fort Worth Center
Thu 02:56:59 PM 32.5694 -99.9803 265° West 432 497 43,000  Level Fort Worth Center
Thu 02:58:01 PM 32.5594 -100.1219 265° West 431 496 43,000  Level Fort Worth Center
Thu 02:59:03 PM 32.5500 -100.2617 265° West 429 494 43,000  Level Fort Worth Center
Thu 03:00:05 PM 32.5389 -100.4022 265° West 427 491 43,000  Level Fort Worth Center
Thu 03:01:07 PM 32.5289 -100.5697 266° West 424 488 43,000  Level Fort Worth Center
Thu 03:02:09 PM 32.5175 -100.7089 264° West 423 487 43,000  Level Fort Worth Center
Thu 03:03:12 PM 32.5075 -100.8467 265° West 422 486 43,000  Level Fort Worth Center
Thu 03:04:14 PM 32.4961 -100.9819 264° West 413 475 43,000  Level Fort Worth Center
Thu 03:05:16 PM 32.4844 -101.1164 264° West 411 473 43,000  Level Fort Worth Center
Thu 03:06:18 PM 32.4753 -101.2522 265° West 412 474 43,000  Level Fort Worth Center
Thu 03:07:20 PM 32.4606 -101.3967 263° West 410 472 43,000  Level Fort Worth Center
Thu 03:08:22 PM 32.4492 -101.5306 264° West 408 470 43,000  Level Fort Worth Center
Thu 03:09:24 PM 32.4383 -101.6644 265° West 410 472 43,000  Level Fort Worth Center
Thu 03:10:26 PM 32.4239 -101.8239 264° West 405 466 43,000  Level Fort Worth Center
Thu 03:11:29 PM 32.4111 -101.9556 263° West 404 465 43,000  Level Fort Worth Center
Thu 03:12:31 PM 32.3992 -102.0886 264° West 406 467 43,000  Level Fort Worth Center
Thu 03:13:33 PM 32.3858 -102.2219 263° West 405 466 43,000  Level Fort Worth Center
Thu 03:14:35 PM 32.3725 -102.3569 263° West 408 470 43,000  Level Fort Worth Center
Thu 03:15:37 PM 32.3589 -102.4933 263° West 408 470 43,000  Level Fort Worth Center
Thu 03:16:39 PM 32.3489 -102.6283 265° West 408 470 43,000  Level Fort Worth Center
Thu 03:17:41 PM 32.3367 -102.7631 264° West 408 470 43,000  Level Fort Worth Center
Thu 03:18:43 PM 32.3217 -102.9219 264° West 408 470 43,000  Level Fort Worth Center
Thu 03:19:45 PM 32.3081 -103.0558 263° West 408 470 43,000  Level Fort Worth Center
Thu 03:20:48 PM 32.2950 -103.1892 263° West 408 470 43,000  Level Fort Worth Center
Thu 03:21:50 PM 32.2817 -103.3233 263° West 409 471 43,000  Level Fort Worth Center
Thu 03:22:52 PM 32.2675 -103.4569 263° West 409 471 43,000  Level Fort Worth Center
Thu 03:23:54 PM 32.2547 -103.5900 264° West 409 471 43,000  Level Fort Worth Center
Thu 03:24:32 PM 32.2433 -103.6969 263° West 409 471 43,000  Level Albuquerque Center
Thu 03:25:34 PM 32.2303 -103.8314 263° West 410 472 43,000  Level Albuquerque Center
Thu 03:26:36 PM 32.2147 -103.9639 262° West 410 472 43,000  Level Albuquerque Center
Thu 03:27:37 PM 32.2008 -104.0978 263° West 410 472 43,000  Level Albuquerque Center
Thu 03:28:39 PM 32.2053 -104.2317 272° West 410 472 43,000  Level Albuquerque Center
Thu 03:29:41 PM 32.2108 -104.3672 273° West 410 472 43,000  Level Albuquerque Center
Thu 03:30:43 PM 32.2117 -104.5008 270° West 410 472 43,000  Level Albuquerque Center
Thu 03:31:45 PM 32.2192 -104.6628 273° West 410 472 43,000 -48 Level Albuquerque Center
Thu 03:32:47 PM 32.2189 -104.7881 270° West 411 473 42,900  Descending Albuquerque Center
Thu 03:33:49 PM 32.2239 -104.9211 273° West 410 472 43,000 48 Climbing Albuquerque Center
Thu 03:34:51 PM 32.2297 -105.0836 272° West 411 473 43,000  Level Albuquerque Center
Thu 03:35:53 PM 32.2347 -105.2175 273° West 412 474 43,000  Level Albuquerque Center
Thu 03:36:54 PM 32.2378 -105.3489 272° West 412 474 43,000  Level Albuquerque Center
Thu 03:37:56 PM 32.2414 -105.4828 272° West 411 473 43,000  Level Albuquerque Center
Thu 03:38:58 PM 32.2436 -105.6322 271° West 408 470 43,000  Level Albuquerque Center
Thu 03:40:00 PM 32.2467 -105.7647 272° West 403 464 43,000  Level Albuquerque Center
Thu 03:41:02 PM 32.2494 -105.9075 271° West 407 468 43,000  Level Albuquerque Center
Thu 03:42:04 PM 32.2528 -106.0392 272° West 405 466 43,000  Level Albuquerque Center
Thu 03:43:05 PM 32.2556 -106.1806 271° West 403 464 43,000  Level Albuquerque Center
Thu 03:44:07 PM 32.2581 -106.3025 271° West 402 463 43,000  Level Albuquerque Center
Thu 03:45:09 PM 32.2603 -106.4347 271° West 402 463 43,000  Level Albuquerque Center
Thu 03:46:11 PM 32.2619 -106.5658 271° West 401 461 43,000  Level Albuquerque Center
Thu 03:47:13 PM 32.2639 -106.6983 271° West 401 461 43,000  Level Albuquerque Center
Thu 03:48:14 PM 32.2656 -106.8308 271° West 402 463 43,000  Level Albuquerque Center
Thu 03:49:16 PM 32.2678 -106.9883 271° West 402 463 43,000  Level Albuquerque Center
Thu 03:50:18 PM 32.2692 -107.1303 271° West 402 463 43,000  Level Albuquerque Center
Thu 03:51:20 PM 32.2683 -107.2531 270° West 403 464 43,000  Level Albuquerque Center
Thu 03:52:21 PM 32.2681 -107.3858 270° West 404 465 43,000  Level Albuquerque Center
Thu 03:53:23 PM 32.2697 -107.5258 271° West 404 465 43,000  Level Albuquerque Center
Thu 03:54:25 PM 32.2694 -107.6581 270° West 404 465 43,000  Level Albuquerque Center
Thu 03:55:27 PM 32.2700 -107.7922 270° West 404 465 43,000  Level Albuquerque Center
Thu 03:56:28 PM 32.2714 -107.9236 271° West 404 465 43,000  Level Albuquerque Center
Thu 03:57:30 PM 32.2708 -108.0561 270° West 404 465 43,000  Level Albuquerque Center
Thu 03:58:32 PM 32.2711 -108.2153 270° West 404 465 43,000  Level Albuquerque Center
Thu 03:59:34 PM 32.2719 -108.3481 270° West 404 465 43,000  Level Albuquerque Center
Thu 04:00:35 PM 32.2714 -108.4722 270° West 404 465 43,000  Level Albuquerque Center
Thu 04:01:37 PM 32.2719 -108.6044 270° West 404 465 43,000 -528 Level Albuquerque Center
Thu 04:02:40 PM 32.2714 -108.7353 270° West 402 463 41,900 -1,366 Descending Albuquerque Center
Thu 04:03:40 PM 32.2694 -108.8889 269° West 395 455 40,200 -1,623 Descending Albuquerque Center
Thu 04:04:42 PM 32.2700 -109.0189 270° West 395 455 38,600 -1,500 Descending Albuquerque Center
Thu 04:05:44 PM 32.2689 -109.1514 269° West 396 456 37,100 -1,463 Descending Albuquerque Center
Thu 04:06:45 PM 32.2733 -109.2858 272° West 405 466 35,600 -1,463 Descending Albuquerque Center
Thu 04:07:47 PM 32.3064 -109.4164 287° West 417 480 34,100 -1,597 Descending Albuquerque Center
Thu 04:08:49 PM 32.3369 -109.5497 285° West 417 480 32,300 -1,790 Descending Albuquerque Center
Thu 04:09:51 PM 32.3703 -109.6847 286° West 421 484 30,400 -1,171 Descending Albuquerque Center
Thu 04:10:52 PM 32.4028 -109.8211 286° West 429 494 29,900 -1,317 Descending Albuquerque Center
Thu 04:11:54 PM 32.4431 -109.9789 287° West 447 514 27,700 -2,032 Descending Albuquerque Center
Thu 04:12:56 PM 32.4797 -110.1333 286° West 447 514 25,700 -1,805 Descending Albuquerque Center
Thu 04:13:57 PM 32.5125 -110.2703 286° West 439 505 24,000 -829 Descending Albuquerque Center
Thu 04:14:59 PM 32.5411 -110.3897 286° West 425 489 24,000  Level Albuquerque Center
Thu 04:16:01 PM 32.5778 -110.5394 286° West 399 459 24,000 -629 Level Albuquerque Center
Thu 04:17:03 PM 32.6328 -110.6461 301° West 384 442 22,700 -1,610 Descending Albuquerque Center
Thu 04:18:04 PM 32.6856 -110.7547 300° West 382 440 20,700 -1,902 Descending Albuquerque Center
Thu 04:19:06 PM 32.7369 -110.8594 300° West 372 428 18,800 -1,839 Descending Albuquerque Center
Thu 04:20:08 PM 32.7878 -110.9625 300° West 367 422 16,900 -1,854 Descending Albuquerque Center
Thu 04:21:09 PM 32.8367 -111.0647 300° West 361 415 15,000 -1,805 Descending Albuquerque Center
Thu 04:22:11 PM 32.8858 -111.1642 301° West 356 410 13,200 -1,694 Descending Albuquerque Center
Thu 04:23:13 PM 32.9331 -111.2606 300° West 339 390 11,500 -1,790 Descending Albuquerque Center
Thu 04:24:15 PM 32.9867 -111.3683 301° West 316 364 9,500 -1,512 Descending Albuquerque Center
Thu 04:25:16 PM 33.0328 -111.4419 307° West 282 325 8,400 -1,210 Descending Albuquerque Center
Thu 04:26:19 PM 33.0686 -111.5233 298° West 276 318 7,000 -726 Descending Albuquerque Center
Thu 04:27:20 PM 33.0967 -111.6111 291° West 282 325 6,900 -295 Descending Albuquerque Center
Thu 04:28:21 PM 33.1258 -111.6997 291° West 288 331 6,400 -439 Descending Albuquerque Center
Thu 04:29:23 PM 33.1569 -111.7847 294° West 282 325 6,000 -242 Descending Albuquerque Center
Thu 04:30:25 PM 33.1942 -111.8653 299° West 281 323 5,900  Descending Albuquerque Center
Thu 04:31:26 PM 33.2492 -111.9333 314° West 283 326 6,000  Climbing Albuquerque Center
Thu 04:32:28 PM 33.3169 -112.0142 315° West 283 326 5,900 -293 Descending Albuquerque Center
Thu 04:33:29 PM 33.3969 -112.0017 North 284 327 5,400 -593 Descending Albuquerque Center
Thu 04:33:59 PM 33.4333 -111.9833 23° Northeast 278 320 5,000 -400 Descending Phoenix TRACON
Thu 04:34:59 PM 33.5167 -111.9667 North 273 314 4,800 -574 Descending Phoenix TRACON
Thu 04:35:54 PM 33.5667 -111.9167 40° Northeast 260 299 3,900 -835 Descending Phoenix TRACON
Thu 04:36:54 PM 33.6167 -111.8833 29° Northeast 190 219 3,200 -824 Descending Phoenix TRACON
Thu 04:37:36 PM 33.6328 -111.8686 37° Northeast 163 188 2,500 -981 Descending Albuquerque Center
Thu 04:38:38 PM 33.6275 -111.9061 260° West 147 169 1,500 -968 Descending Albuquerque Center

Login

Don't have an account? Register now (free) for customized features, flight alerts, and more!